sensor_id;sensor_type;location;lat;lon;timestamp;P1;durP1;ratioP1;P2;durP2;ratioP2
63900;SDS011;50538;53.482;10.294;2022-11-11T00:02:59;3.08;;;1.00;;
63900;SDS011;50538;53.482;10.294;2022-11-11T00:13:58;4.00;;;1.25;;
63900;SDS011;50538;53.482;10.294;2022-11-11T00:24:57;1.95;;;0.98;;
63900;SDS011;50538;53.482;10.294;2022-11-11T00:35:56;5.22;;;1.00;;
63900;SDS011;50538;53.482;10.294;2022-11-11T00:46:57;2.60;;;1.17;;
63900;SDS011;50538;53.482;10.294;2022-11-11T00:58:15;3.22;;;1.55;;
63900;SDS011;50538;53.482;10.294;2022-11-11T01:09:16;5.40;;;1.35;;
63900;SDS011;50538;53.482;10.294;2022-11-11T01:20:35;4.93;;;1.60;;
63900;SDS011;50538;53.482;10.294;2022-11-11T01:31:34;5.22;;;2.03;;
63900;SDS011;50538;53.482;10.294;2022-11-11T01:42:50;3.90;;;1.48;;
63900;SDS011;50538;53.482;10.294;2022-11-11T01:53:54;5.88;;;2.10;;
63900;SDS011;50538;53.482;10.294;2022-11-11T02:04:53;5.53;;;2.28;;
63900;SDS011;50538;53.482;10.294;2022-11-11T02:15:55;7.68;;;2.40;;
63900;SDS011;50538;53.482;10.294;2022-11-11T02:26:54;6.25;;;2.17;;
63900;SDS011;50538;53.482;10.294;2022-11-11T02:37:57;4.70;;;2.15;;
63900;SDS011;50538;53.482;10.294;2022-11-11T02:48:55;4.40;;;1.75;;
63900;SDS011;50538;53.482;10.294;2022-11-11T02:59:55;4.50;;;1.60;;
63900;SDS011;50538;53.482;10.294;2022-11-11T03:10:54;5.55;;;1.90;;
63900;SDS011;50538;53.482;10.294;2022-11-11T03:21:53;6.15;;;1.70;;
63900;SDS011;50538;53.482;10.294;2022-11-11T03:33:22;4.40;;;1.80;;
63900;SDS011;50538;53.482;10.294;2022-11-11T03:44:21;4.07;;;1.42;;
63900;SDS011;50538;53.482;10.294;2022-11-11T03:55:20;5.47;;;1.80;;
63900;SDS011;50538;53.482;10.294;2022-11-11T04:06:19;6.22;;;1.73;;
63900;SDS011;50538;53.482;10.294;2022-11-11T04:17:37;6.93;;;1.80;;
63900;SDS011;50538;53.482;10.294;2022-11-11T04:28:54;5.15;;;2.15;;
63900;SDS011;50538;53.482;10.294;2022-11-11T04:39:53;5.30;;;2.00;;
63900;SDS011;50538;53.482;10.294;2022-11-11T04:51:04;5.55;;;2.05;;
63900;SDS011;50538;53.482;10.294;2022-11-11T05:02:22;4.80;;;1.88;;
63900;SDS011;50538;53.482;10.294;2022-11-11T05:13:23;5.93;;;2.20;;
63900;SDS011;50538;53.482;10.294;2022-11-11T05:24:41;7.63;;;2.50;;
63900;SDS011;50538;53.482;10.294;2022-11-11T05:35:40;7.32;;;1.92;;
63900;SDS011;50538;53.482;10.294;2022-11-11T05:46:39;5.18;;;1.92;;
63900;SDS011;50538;53.482;10.294;2022-11-11T05:57:38;6.85;;;2.40;;
63900;SDS011;50538;53.482;10.294;2022-11-11T06:08:37;5.93;;;2.10;;
63900;SDS011;50538;53.482;10.294;2022-11-11T06:19:36;7.00;;;2.65;;
63900;SDS011;50538;53.482;10.294;2022-11-11T06:30:35;7.65;;;2.67;;
63900;SDS011;50538;53.482;10.294;2022-11-11T06:41:34;8.43;;;3.15;;
63900;SDS011;50538;53.482;10.294;2022-11-11T06:52:36;5.93;;;2.35;;
63900;SDS011;50538;53.482;10.294;2022-11-11T07:03:36;8.45;;;2.78;;
63900;SDS011;50538;53.482;10.294;2022-11-11T07:14:35;8.63;;;3.10;;
63900;SDS011;50538;53.482;10.294;2022-11-11T07:25:34;6.80;;;2.67;;
63900;SDS011;50538;53.482;10.294;2022-11-11T07:36:33;12.98;;;3.38;;
63900;SDS011;50538;53.482;10.294;2022-11-11T07:47:32;7.55;;;3.30;;
63900;SDS011;50538;53.482;10.294;2022-11-11T07:58:31;11.05;;;4.20;;
63900;SDS011;50538;53.482;10.294;2022-11-11T08:09:30;10.80;;;3.83;;
63900;SDS011;50538;53.482;10.294;2022-11-11T08:20:29;10.13;;;3.85;;
63900;SDS011;50538;53.482;10.294;2022-11-11T08:31:28;12.30;;;4.18;;
63900;SDS011;50538;53.482;10.294;2022-11-11T08:42:27;14.70;;;3.50;;
63900;SDS011;50538;53.482;10.294;2022-11-11T08:53:26;9.82;;;4.28;;
63900;SDS011;50538;53.482;10.294;2022-11-11T09:04:25;9.60;;;3.90;;
63900;SDS011;50538;53.482;10.294;2022-11-11T09:15:25;14.75;;;4.50;;
63900;SDS011;50538;53.482;10.294;2022-11-11T09:26:24;12.48;;;4.07;;
63900;SDS011;50538;53.482;10.294;2022-11-11T09:37:23;13.68;;;4.60;;
63900;SDS011;50538;53.482;10.294;2022-11-11T09:59:39;15.15;;;4.50;;
63900;SDS011;50538;53.482;10.294;2022-11-11T10:10:45;10.65;;;3.65;;
63900;SDS011;50538;53.482;10.294;2022-11-11T10:22:01;10.73;;;4.07;;
63900;SDS011;50538;53.482;10.294;2022-11-11T10:33:26;10.23;;;3.90;;
63900;SDS011;50538;53.482;10.294;2022-11-11T10:44:30;9.48;;;4.10;;
63900;SDS011;50538;53.482;10.294;2022-11-11T10:55:44;10.88;;;4.05;;
63900;SDS011;50538;53.482;10.294;2022-11-11T11:06:52;10.82;;;4.35;;
63900;SDS011;50538;53.482;10.294;2022-11-11T11:18:03;11.88;;;4.57;;
63900;SDS011;50538;53.482;10.294;2022-11-11T11:40:45;9.40;;;4.13;;
63900;SDS011;50538;53.482;10.294;2022-11-11T13:11:14;8.32;;;3.00;;
63900;SDS011;50538;53.482;10.294;2022-11-11T13:33:24;5.93;;;2.53;;
63900;SDS011;50538;53.482;10.294;2022-11-11T13:44:31;5.80;;;2.60;;
63900;SDS011;50538;53.482;10.294;2022-11-11T13:55:41;7.10;;;3.08;;
63900;SDS011;50538;53.482;10.294;2022-11-11T14:39:51;6.35;;;2.92;;
63900;SDS011;50538;53.482;10.294;2022-11-11T14:50:51;9.57;;;2.95;;
63900;SDS011;50538;53.482;10.294;2022-11-11T15:01:52;13.27;;;5.68;;
63900;SDS011;50538;53.482;10.294;2022-11-11T15:47:11;5.32;;;2.35;;
63900;SDS011;50538;53.482;10.294;2022-11-11T15:58:23;4.22;;;2.05;;
63900;SDS011;50538;53.482;10.294;2022-11-11T16:09:24;5.70;;;2.15;;
63900;SDS011;50538;53.482;10.294;2022-11-11T16:20:27;8.07;;;2.47;;
63900;SDS011;50538;53.482;10.294;2022-11-11T16:42:33;6.97;;;2.22;;
63900;SDS011;50538;53.482;10.294;2022-11-11T16:53:47;6.63;;;2.25;;
63900;SDS011;50538;53.482;10.294;2022-11-11T17:04:51;5.95;;;2.67;;
63900;SDS011;50538;53.482;10.294;2022-11-11T17:15:57;4.10;;;2.15;;
63900;SDS011;50538;53.482;10.294;2022-11-11T17:26:57;5.70;;;3.17;;
63900;SDS011;50538;53.482;10.294;2022-11-11T17:37:56;7.32;;;3.22;;
63900;SDS011;50538;53.482;10.294;2022-11-11T17:48:55;6.82;;;3.30;;
63900;SDS011;50538;53.482;10.294;2022-11-11T17:59:54;6.25;;;2.95;;
63900;SDS011;50538;53.482;10.294;2022-11-11T18:10:57;9.40;;;3.47;;
63900;SDS011;50538;53.482;10.294;2022-11-11T18:21:57;6.10;;;3.13;;
63900;SDS011;50538;53.482;10.294;2022-11-11T18:32:56;6.72;;;3.42;;
63900;SDS011;50538;53.482;10.294;2022-11-11T18:43:55;7.70;;;3.45;;
63900;SDS011;50538;53.482;10.294;2022-11-11T18:54:54;8.63;;;4.10;;
63900;SDS011;50538;53.482;10.294;2022-11-11T19:05:53;9.25;;;3.53;;
63900;SDS011;50538;53.482;10.294;2022-11-11T19:16:58;12.63;;;4.30;;
63900;SDS011;50538;53.482;10.294;2022-11-11T19:27:58;8.40;;;3.55;;
63900;SDS011;50538;53.482;10.294;2022-11-11T19:38:58;9.55;;;3.28;;
63900;SDS011;50538;53.482;10.294;2022-11-11T19:49:58;8.48;;;3.50;;
63900;SDS011;50538;53.482;10.294;2022-11-11T20:01:09;5.88;;;2.70;;
63900;SDS011;50538;53.482;10.294;2022-11-11T20:12:12;6.50;;;2.90;;
63900;SDS011;50538;53.482;10.294;2022-11-11T20:23:11;9.40;;;2.88;;
63900;SDS011;50538;53.482;10.294;2022-11-11T20:34:10;7.72;;;2.75;;
63900;SDS011;50538;53.482;10.294;2022-11-11T20:45:09;6.45;;;2.38;;
63900;SDS011;50538;53.482;10.294;2022-11-11T20:56:14;9.95;;;2.80;;
63900;SDS011;50538;53.482;10.294;2022-11-11T21:07:15;7.38;;;2.75;;
63900;SDS011;50538;53.482;10.294;2022-11-11T21:18:15;5.85;;;2.25;;
63900;SDS011;50538;53.482;10.294;2022-11-11T21:29:14;7.72;;;2.40;;
63900;SDS011;50538;53.482;10.294;2022-11-11T21:40:13;4.93;;;2.33;;
63900;SDS011;50538;53.482;10.294;2022-11-11T22:02:13;4.90;;;1.88;;
63900;SDS011;50538;53.482;10.294;2022-11-11T22:13:12;4.00;;;1.85;;
63900;SDS011;50538;53.482;10.294;2022-11-11T22:24:11;4.35;;;1.77;;
63900;SDS011;50538;53.482;10.294;2022-11-11T22:35:10;5.05;;;1.95;;
63900;SDS011;50538;53.482;10.294;2022-11-11T22:46:11;9.65;;;2.13;;
63900;SDS011;50538;53.482;10.294;2022-11-11T22:57:11;6.57;;;2.70;;
63900;SDS011;50538;53.482;10.294;2022-11-11T23:08:11;7.13;;;2.20;;
63900;SDS011;50538;53.482;10.294;2022-11-11T23:19:10;4.65;;;2.13;;
63900;SDS011;50538;53.482;10.294;2022-11-11T23:30:10;8.05;;;2.45;;
63900;SDS011;50538;53.482;10.294;2022-11-11T23:41:11;4.53;;;2.25;;
63900;SDS011;50538;53.482;10.294;2022-11-11T23:52:10;4.15;;;2.03;;
